createdAt,value
2022-09-21T00:01:22.233Z,9.28
2022-09-21T00:03:56.917Z,9.21
2022-09-21T00:06:25.887Z,9.19
2022-09-21T00:08:53.309Z,9.09
2022-09-21T00:11:25.134Z,9.06
2022-09-21T00:13:57.847Z,9.06
2022-09-21T00:16:25.034Z,8.97
2022-09-21T00:18:52.435Z,9.04
2022-09-21T00:21:19.540Z,8.93
2022-09-21T00:23:46.946Z,8.89
2022-09-21T00:26:17.987Z,8.94
2022-09-21T00:28:45.693Z,8.98
2022-09-21T00:31:15.320Z,8.86
2022-09-21T00:33:43.814Z,8.79
2022-09-21T00:36:13.231Z,8.75
2022-09-21T00:38:40.515Z,8.73
2022-09-21T00:41:08.987Z,8.72
2022-09-21T00:43:40.309Z,8.73
2022-09-21T00:46:28.942Z,8.78
2022-09-21T00:48:57.600Z,8.76
2022-09-21T00:51:25.580Z,8.87
2022-09-21T00:53:59.334Z,8.92
2022-09-21T00:56:26.506Z,8.97
2022-09-21T00:58:55.112Z,8.94
2022-09-21T01:01:22.308Z,8.99
2022-09-21T01:03:51.732Z,9.05
2022-09-21T01:06:20.598Z,9.13
2022-09-21T01:08:55.022Z,9.08
2022-09-21T01:11:42.046Z,9.12
2022-09-21T01:14:37.202Z,9.35
2022-09-21T01:17:03.907Z,9.24
2022-09-21T01:20:13.314Z,9.31
2022-09-21T01:23:17.166Z,9.45
2022-09-21T01:26:05.230Z,9.36
2022-09-21T01:31:40.303Z,9.44
2022-09-21T01:34:21.397Z,9.48
2022-09-21T01:36:51.116Z,9.42
2022-09-21T01:39:20.835Z,9.36
2022-09-21T01:41:53.117Z,9.38
2022-09-21T01:44:21.983Z,9.31
2022-09-21T01:46:50.282Z,9.35
2022-09-21T01:49:27.957Z,9.41
2022-09-21T01:52:05.635Z,9.35
2022-09-21T01:54:46.919Z,9.46
2022-09-21T01:57:32.379Z,9.38
2022-09-21T02:00:01.716Z,9.40
2022-09-21T02:03:00.243Z,9.50
2022-09-21T02:05:30.402Z,9.52
2022-09-21T02:07:58.706Z,9.54
2022-09-21T02:10:40.130Z,9.58
2022-09-21T02:13:08.928Z,9.54
2022-09-21T02:15:56.743Z,9.55
2022-09-21T02:18:57.544Z,9.60
2022-09-21T02:21:33.173Z,9.66
2022-09-21T02:24:14.111Z,9.75
2022-09-21T02:26:50.193Z,9.77
2022-09-21T02:29:40.347Z,9.78
2022-09-21T02:32:16.469Z,9.74
2022-09-21T02:35:04.781Z,9.62
2022-09-21T02:37:56.825Z,9.63
2022-09-21T02:40:36.383Z,9.62
2022-09-21T02:43:09.382Z,9.63
2022-09-21T02:45:53.173Z,9.56
2022-09-21T02:48:29.466Z,9.60
2022-09-21T02:51:00.236Z,9.57
2022-09-21T02:53:31.912Z,9.56
2022-09-21T02:56:07.287Z,9.58
2022-09-21T02:58:41.409Z,9.59
2022-09-21T03:01:11.125Z,9.60
2022-09-21T03:03:38.144Z,9.66
2022-09-21T03:06:05.221Z,9.68
2022-09-21T03:08:32.058Z,9.78
2022-09-21T03:10:59.098Z,9.82
2022-09-21T03:13:25.851Z,9.83
2022-09-21T03:16:01.275Z,9.81
2022-09-21T03:18:28.187Z,9.90
2022-09-21T03:20:55.497Z,9.91
2022-09-21T03:23:22.524Z,9.82
2022-09-21T03:25:50.663Z,9.89
2022-09-21T03:28:17.380Z,9.99
2022-09-21T03:30:44.821Z,9.94
2022-09-21T03:33:13.187Z,9.92
2022-09-21T03:35:40.565Z,9.82
2022-09-21T03:38:07.296Z,9.81
2022-09-21T03:40:35.097Z,9.78
2022-09-21T03:43:02.138Z,9.83
2022-09-21T03:45:29.405Z,9.89
2022-09-21T03:47:57.901Z,9.94
2022-09-21T03:50:30.385Z,10.02
2022-09-21T03:52:57.615Z,9.96
2022-09-21T03:55:25.328Z,10.09
2022-09-21T03:57:52.371Z,10.05
2022-09-21T04:00:20.261Z,9.98
2022-09-21T04:02:47.349Z,9.97
2022-09-21T04:05:15.827Z,9.91
2022-09-21T04:07:46.027Z,9.98
2022-09-21T04:10:15.914Z,9.92
2022-09-21T04:12:44.471Z,9.92
2022-09-21T04:15:16.528Z,9.96
2022-09-21T04:17:43.552Z,9.90
2022-09-21T04:20:10.356Z,9.75
2022-09-21T04:22:41.233Z,9.79
2022-09-21T04:25:10.988Z,9.87
2022-09-21T04:27:38.093Z,9.90
2022-09-21T04:30:05.842Z,9.87
2022-09-21T04:32:32.846Z,9.99
2022-09-21T04:34:59.529Z,9.98
2022-09-21T04:37:26.764Z,10.02
2022-09-21T04:39:53.682Z,10.07
2022-09-21T04:42:20.608Z,10.08
2022-09-21T04:44:47.323Z,10.14
2022-09-21T04:47:14.763Z,10.16
2022-09-21T04:49:41.433Z,10.03
2022-09-21T04:52:08.292Z,9.84
2022-09-21T04:54:35.023Z,9.91
2022-09-21T04:57:02.060Z,9.84
2022-09-21T04:59:28.729Z,9.73
2022-09-21T05:01:55.732Z,9.73
2022-09-21T05:04:22.473Z,9.64
2022-09-21T05:06:49.475Z,9.51
2022-09-21T05:09:37.114Z,9.55
2022-09-21T05:12:05.378Z,9.48
2022-09-21T05:14:32.165Z,9.43
2022-09-21T05:16:59.175Z,9.46
2022-09-21T05:19:26.110Z,9.61
2022-09-21T05:21:52.824Z,9.69
2022-09-21T05:24:19.994Z,9.67
2022-09-21T05:26:46.794Z,9.65
2022-09-21T05:29:14.022Z,9.80
2022-09-21T05:31:43.607Z,9.69
2022-09-21T05:34:19.395Z,9.64
2022-09-21T05:37:05.576Z,9.65
2022-09-21T05:39:32.814Z,9.72
2022-09-21T05:41:59.859Z,9.66
2022-09-21T05:44:27.177Z,9.64
2022-09-21T05:47:04.518Z,9.70
2022-09-21T05:49:57.048Z,9.66
2022-09-21T05:52:34.781Z,9.74
2022-09-21T05:55:31.006Z,9.60
2022-09-21T05:58:21.806Z,9.54
2022-09-21T06:01:20.732Z,9.57
2022-09-21T06:03:50.132Z,9.62
2022-09-21T06:06:20.722Z,9.70
2022-09-21T06:08:47.688Z,9.72
2022-09-21T06:11:15.160Z,9.64
2022-09-21T06:13:41.990Z,9.74
2022-09-21T06:16:08.979Z,9.87
2022-09-21T06:18:40.338Z,9.89
2022-09-21T06:21:08.389Z,9.83
2022-09-21T06:23:35.933Z,9.87
2022-09-21T06:26:03.277Z,9.92
2022-09-21T06:28:30.241Z,9.88
2022-09-21T06:30:58.467Z,9.95
2022-09-21T06:33:26.150Z,10.00
2022-09-21T06:35:55.373Z,10.07
2022-09-21T06:38:22.984Z,10.20
2022-09-21T06:40:50.801Z,10.21
2022-09-21T06:43:18.153Z,10.29
2022-09-21T06:45:52.972Z,10.33
2022-09-21T06:48:19.973Z,10.50
2022-09-21T06:50:46.926Z,10.70
2022-09-21T06:53:14.704Z,10.91
2022-09-21T06:55:41.866Z,11.29
2022-09-21T06:58:08.637Z,11.68
2022-09-21T07:00:35.751Z,12.01
2022-09-21T07:03:02.524Z,12.59
2022-09-21T07:05:29.401Z,12.51
2022-09-21T07:07:59.557Z,12.61
2022-09-21T07:10:26.654Z,13.13
2022-09-21T07:12:53.689Z,13.30
2022-09-21T07:15:21.470Z,13.48
2022-09-21T07:18:05.285Z,13.86
2022-09-21T07:20:32.635Z,13.31
2022-09-21T07:23:00.631Z,13.21
2022-09-21T07:25:27.408Z,13.14
2022-09-21T07:27:54.289Z,13.22
2022-09-21T07:30:21.098Z,13.17
2022-09-21T07:32:47.912Z,13.35
2022-09-21T07:35:14.743Z,13.78
2022-09-21T07:37:41.766Z,14.22
2022-09-21T07:40:08.937Z,14.07
2022-09-21T07:42:35.810Z,13.86
2022-09-21T07:45:04.737Z,13.87
2022-09-21T07:47:32.285Z,14.20
2022-09-21T07:49:59.108Z,14.42
2022-09-21T07:52:25.936Z,14.79
2022-09-21T07:54:52.591Z,14.83
2022-09-21T07:57:38.109Z,14.64
2022-09-21T08:00:05.954Z,14.57
2022-09-21T08:02:41.753Z,14.68
2022-09-21T08:05:12.229Z,14.80
2022-09-21T08:07:39.404Z,15.07
2022-09-21T08:10:06.598Z,15.14
2022-09-21T08:12:33.609Z,15.00
2022-09-21T08:15:00.297Z,14.99
2022-09-21T08:17:27.124Z,14.77
2022-09-21T08:19:54.757Z,14.97
2022-09-21T08:22:26.290Z,15.38
2022-09-21T08:24:53.048Z,15.46
2022-09-21T08:27:20.453Z,15.51
2022-09-21T08:29:47.111Z,15.48
2022-09-21T08:32:33.093Z,15.41
2022-09-21T08:35:01.121Z,15.52
2022-09-21T08:37:27.953Z,15.65
2022-09-21T08:39:54.616Z,15.63
2022-09-21T08:42:51.339Z,15.67
2022-09-21T08:45:21.049Z,15.66
2022-09-21T08:47:53.687Z,15.62
2022-09-21T08:50:26.938Z,15.24
2022-09-21T08:53:01.676Z,15.19
2022-09-21T08:55:28.487Z,15.08
2022-09-21T08:57:55.472Z,15.25
2022-09-21T09:00:23.284Z,15.46
2022-09-21T09:03:15.659Z,15.06
2022-09-21T09:05:45.491Z,14.97
2022-09-21T09:08:33.275Z,15.37
2022-09-21T09:11:26.688Z,15.91
2022-09-21T09:14:08.496Z,16.25
2022-09-21T09:16:59.084Z,16.44
2022-09-21T09:19:34.827Z,15.67
2022-09-21T09:22:07.315Z,15.85
2022-09-21T09:25:13.802Z,15.67
2022-09-21T09:27:44.848Z,15.87
2022-09-21T09:30:19.584Z,15.92
2022-09-21T09:32:55.900Z,16.02
2022-09-21T09:35:45.876Z,15.96
2022-09-21T09:38:29.350Z,16.12
2022-09-21T09:41:15.642Z,16.03
2022-09-21T09:43:46.761Z,16.36
2022-09-21T09:46:20.539Z,16.32
2022-09-21T09:49:03.994Z,16.35
2022-09-21T09:51:35.247Z,16.49
2022-09-21T09:54:06.913Z,16.85
2022-09-21T09:56:36.306Z,17.07
2022-09-21T09:59:09.850Z,16.75
2022-09-21T10:01:43.816Z,16.51
2022-09-21T10:04:16.291Z,16.41
2022-09-21T10:06:46.704Z,16.37
2022-09-21T10:09:34.186Z,16.52
2022-09-21T10:12:27.593Z,16.52
2022-09-21T10:15:00.996Z,16.50
2022-09-21T10:17:28.105Z,16.47
2022-09-21T10:20:02.644Z,16.34
2022-09-21T10:22:32.676Z,16.65
2022-09-21T10:25:01.836Z,16.37
2022-09-21T10:27:36.039Z,16.51
2022-09-21T10:30:03.726Z,16.71
2022-09-21T10:32:31.050Z,16.84
2022-09-21T10:35:06.340Z,16.78
2022-09-21T10:37:34.974Z,16.61
2022-09-21T10:40:02.326Z,16.88
2022-09-21T10:42:42.082Z,16.86
2022-09-21T10:45:23.272Z,16.60
2022-09-21T10:48:16.781Z,16.42
2022-09-21T10:50:47.106Z,16.45
2022-09-21T10:53:22.329Z,16.30
2022-09-21T10:56:15.928Z,16.26
2022-09-21T10:59:17.572Z,16.44
2022-09-21T11:01:46.929Z,16.39
2022-09-21T11:04:42.668Z,16.60
2022-09-21T11:07:32.493Z,16.76
2022-09-21T11:10:17.867Z,16.87
2022-09-21T11:12:47.340Z,16.96
2022-09-21T11:15:41.875Z,16.70
2022-09-21T11:18:19.139Z,16.75
2022-09-21T11:20:51.232Z,16.59
2022-09-21T11:23:41.876Z,16.66
2022-09-21T11:26:40.992Z,16.91
2022-09-21T11:29:23.462Z,16.50
2022-09-21T11:32:26.398Z,16.76
2022-09-21T11:35:17.411Z,16.84
2022-09-21T11:38:10.169Z,16.69
2022-09-21T11:40:37.065Z,16.55
2022-09-21T11:43:34.365Z,16.61
2022-09-21T11:46:31.189Z,16.78
2022-09-21T11:49:21.738Z,16.97
2022-09-21T11:51:59.321Z,16.96
2022-09-21T11:55:00.708Z,16.66
2022-09-21T11:57:55.070Z,16.49
2022-09-21T12:00:23.584Z,16.52
2022-09-21T12:03:26.991Z,16.69
2022-09-21T12:06:13.907Z,16.62
2022-09-21T12:08:52.643Z,17.02
2022-09-21T12:11:25.400Z,17.49
2022-09-21T12:14:03.943Z,17.54
2022-09-21T12:16:57.154Z,17.73
2022-09-21T12:19:49.625Z,17.67
2022-09-21T12:22:26.913Z,17.62
2022-09-21T12:25:13.352Z,17.59
2022-09-21T12:27:54.195Z,17.55
2022-09-21T12:30:23.230Z,17.38
2022-09-21T12:33:03.525Z,17.19
2022-09-21T12:35:43.718Z,17.11
2022-09-21T12:38:25.666Z,17.17
2022-09-21T12:40:59.923Z,17.27
2022-09-21T12:43:32.811Z,17.17
2022-09-21T12:46:18.163Z,17.19
2022-09-21T12:48:45.741Z,17.01
2022-09-21T12:51:33.746Z,16.41
2022-09-21T12:54:09.415Z,16.07
2022-09-21T12:57:17.603Z,16.24
2022-09-21T13:00:04.420Z,16.52
2022-09-21T13:02:35.115Z,16.45
2022-09-21T13:05:29.797Z,16.40
2022-09-21T13:08:01.506Z,16.46
2022-09-21T13:10:28.693Z,16.60
2022-09-21T13:13:02.324Z,16.83
2022-09-21T13:15:41.141Z,17.04
2022-09-21T13:18:37.413Z,17.11
2022-09-21T13:21:23.291Z,17.18
2022-09-21T13:24:01.589Z,17.20
2022-09-21T13:26:41.203Z,17.20
2022-09-21T13:29:15.109Z,17.13
2022-09-21T13:31:51.963Z,17.24
2022-09-21T13:34:26.087Z,17.30
2022-09-21T13:37:14.455Z,17.26
2022-09-21T13:39:45.326Z,17.31
2022-09-21T13:42:30.471Z,17.41
2022-09-21T13:44:59.390Z,17.34
2022-09-21T13:47:34.638Z,17.38
2022-09-21T13:50:11.155Z,17.34
2022-09-21T13:52:46.903Z,17.19
2022-09-21T13:55:29.609Z,17.15
2022-09-21T13:58:00.195Z,17.04
2022-09-21T14:01:05.440Z,16.98
2022-09-21T14:03:37.400Z,16.91
2022-09-21T14:06:28.270Z,17.08
2022-09-21T14:09:00.089Z,16.91
2022-09-21T14:11:33.845Z,16.95
2022-09-21T14:14:31.163Z,17.03
2022-09-21T14:17:00.192Z,17.17
2022-09-21T14:19:27.045Z,17.26
2022-09-21T14:22:06.192Z,17.16
2022-09-21T14:24:44.072Z,17.13
2022-09-21T14:27:19.875Z,17.11
2022-09-21T14:29:59.528Z,16.91
2022-09-21T14:32:29.662Z,16.78
2022-09-21T14:35:08.230Z,16.76
2022-09-21T14:37:40.760Z,16.84
2022-09-21T14:40:26.691Z,17.11
2022-09-21T14:42:55.566Z,17.18
2022-09-21T14:45:34.987Z,17.40
2022-09-21T14:48:33.387Z,17.45
2022-09-21T14:51:25.522Z,17.52
2022-09-21T14:54:26.313Z,17.70
2022-09-21T14:57:24.377Z,17.65
2022-09-21T15:00:04.800Z,17.31
2022-09-21T15:02:38.271Z,17.21
2022-09-21T15:05:33.811Z,17.32
2022-09-21T15:09:02.203Z,17.41
2022-09-21T15:11:37.039Z,17.36
2022-09-21T15:14:22.228Z,17.37
2022-09-21T15:16:51.997Z,17.43
2022-09-21T15:19:18.957Z,17.49
2022-09-21T15:21:47.895Z,17.60
2022-09-21T15:24:21.108Z,17.47
2022-09-21T15:26:50.339Z,17.52
2022-09-21T15:29:29.352Z,17.51
2022-09-21T15:31:56.250Z,17.63
2022-09-21T15:34:23.991Z,17.45
2022-09-21T15:36:52.853Z,17.49
2022-09-21T15:39:23.924Z,17.50
2022-09-21T15:42:08.325Z,17.57
2022-09-21T15:44:37.559Z,17.61
2022-09-21T15:47:12.643Z,17.59
2022-09-21T15:49:40.452Z,17.60
2022-09-21T15:52:17.757Z,17.78
2022-09-21T15:54:52.384Z,17.83
2022-09-21T15:57:40.579Z,17.74
2022-09-21T16:00:15.924Z,17.67
2022-09-21T16:02:56.191Z,17.62
2022-09-21T16:05:25.649Z,17.57
2022-09-21T16:08:06.536Z,17.55
2022-09-21T16:10:33.209Z,17.47
2022-09-21T16:13:28.022Z,17.48
2022-09-21T16:16:03.081Z,17.29
2022-09-21T16:18:35.272Z,17.36
2022-09-21T16:21:09.879Z,17.24
2022-09-21T16:23:39.507Z,17.20
2022-09-21T16:26:06.706Z,17.15
2022-09-21T16:28:41.744Z,17.12
2022-09-21T16:31:36.889Z,17.19
2022-09-21T16:34:18.863Z,17.08
2022-09-21T16:36:47.609Z,16.97
2022-09-21T16:39:16.130Z,17.04
2022-09-21T16:42:06.948Z,16.92
2022-09-21T16:44:41.221Z,16.77
2022-09-21T16:47:17.302Z,16.65
2022-09-21T16:49:44.575Z,16.58
2022-09-21T16:52:11.804Z,16.52
2022-09-21T16:54:39.020Z,16.56
2022-09-21T16:57:06.782Z,16.49
2022-09-21T16:59:34.870Z,16.47
2022-09-21T17:02:05.208Z,16.50
2022-09-21T17:04:34.041Z,16.49
2022-09-21T17:07:03.757Z,16.55
2022-09-21T17:09:36.374Z,16.63
2022-09-21T17:12:07.059Z,16.50
2022-09-21T17:14:36.774Z,16.49
2022-09-21T17:17:08.601Z,16.49
2022-09-21T17:19:35.807Z,16.41
2022-09-21T17:22:04.452Z,16.51
2022-09-21T17:24:49.302Z,16.35
2022-09-21T17:27:19.244Z,16.29
2022-09-21T17:29:47.973Z,16.27
2022-09-21T17:32:18.028Z,16.22
2022-09-21T17:34:46.141Z,16.14
2022-09-21T17:37:13.076Z,16.08
2022-09-21T17:39:41.769Z,15.91
2022-09-21T17:42:19.745Z,15.89
2022-09-21T17:45:01.836Z,15.94
2022-09-21T17:47:29.788Z,15.81
2022-09-21T17:50:20.315Z,15.81
2022-09-21T17:53:07.642Z,15.75
2022-09-21T17:55:34.997Z,15.87
2022-09-21T17:58:34.692Z,15.83
2022-09-21T18:01:14.100Z,15.73
2022-09-21T18:03:43.688Z,15.52
2022-09-21T18:06:11.859Z,15.47
2022-09-21T18:08:39.815Z,15.77
2022-09-21T18:11:19.145Z,15.93
2022-09-21T18:14:17.515Z,15.80
2022-09-21T18:17:22.071Z,15.86
2022-09-21T18:20:22.250Z,15.66
2022-09-21T18:23:03.861Z,15.59
2022-09-21T18:25:47.991Z,15.39
2022-09-21T18:28:23.661Z,15.17
2022-09-21T18:31:03.413Z,15.05
2022-09-21T18:33:41.360Z,14.95
2022-09-21T18:36:37.305Z,15.13
2022-09-21T18:39:31.461Z,15.05
2022-09-21T18:42:26.013Z,14.85
2022-09-21T18:45:05.790Z,14.71
2022-09-21T18:47:41.562Z,14.65
2022-09-21T18:50:24.927Z,14.55
2022-09-21T18:53:19.634Z,14.46
2022-09-21T18:55:47.155Z,14.40
2022-09-21T18:58:14.532Z,14.40
2022-09-21T19:00:41.858Z,14.47
2022-09-21T19:03:19.160Z,14.41
2022-09-21T19:05:52.040Z,14.36
2022-09-21T19:08:28.610Z,14.38
2022-09-21T19:11:04.726Z,14.39
2022-09-21T19:13:58.512Z,14.39
2022-09-21T19:17:02.604Z,14.35
2022-09-21T19:19:48.872Z,14.37
2022-09-21T19:22:24.637Z,14.37
2022-09-21T19:25:02.564Z,14.43
2022-09-21T19:27:50.484Z,14.41
2022-09-21T19:30:17.713Z,14.38
2022-09-21T19:32:53.262Z,14.32
2022-09-21T19:35:24.442Z,14.27
2022-09-21T19:37:53.766Z,14.15
2022-09-21T19:40:26.483Z,14.15
2022-09-21T19:43:05.236Z,14.06
2022-09-21T19:45:50.545Z,13.97
2022-09-21T19:48:20.392Z,14.05
2022-09-21T19:50:55.745Z,14.15
2022-09-21T19:53:41.577Z,14.17
2022-09-21T19:56:30.741Z,14.29
2022-09-21T19:59:16.489Z,14.17
2022-09-21T20:01:52.834Z,14.09
2022-09-21T20:04:29.167Z,13.97
2022-09-21T20:07:03.340Z,13.85
2022-09-21T20:09:42.265Z,13.87
2022-09-21T20:12:22.039Z,13.92
2022-09-21T20:15:04.550Z,13.84
2022-09-21T20:17:43.541Z,13.70
2022-09-21T20:20:20.487Z,13.61
2022-09-21T20:22:47.648Z,13.67
2022-09-21T20:25:30.614Z,13.64
2022-09-21T20:27:58.155Z,13.52
2022-09-21T20:30:33.719Z,13.61
2022-09-21T20:33:06.997Z,13.53
2022-09-21T20:35:34.678Z,13.52
2022-09-21T20:38:02.968Z,13.45
2022-09-21T20:40:32.592Z,13.47
2022-09-21T20:43:01.192Z,13.45
2022-09-21T20:45:28.960Z,13.39
2022-09-21T20:47:57.440Z,13.25
2022-09-21T20:50:30.573Z,13.21
2022-09-21T20:52:57.409Z,13.23
2022-09-21T20:55:24.540Z,13.16
2022-09-21T20:57:51.231Z,13.15
2022-09-21T21:00:19.627Z,13.23
2022-09-21T21:02:46.344Z,13.24
2022-09-21T21:05:13.355Z,13.31
2022-09-21T21:07:42.618Z,13.26
2022-09-21T21:10:14.442Z,13.19
2022-09-21T21:12:43.966Z,13.14
2022-09-21T21:15:12.637Z,13.18
2022-09-21T21:17:40.804Z,13.12
2022-09-21T21:20:09.045Z,13.13
2022-09-21T21:22:36.604Z,13.03
2022-09-21T21:25:04.448Z,13.07
2022-09-21T21:27:31.738Z,13.14
2022-09-21T21:29:58.602Z,13.07
2022-09-21T21:32:26.695Z,12.92
2022-09-21T21:34:54.798Z,12.89
2022-09-21T21:37:25.076Z,12.65
2022-09-21T21:39:53.118Z,12.25
2022-09-21T21:42:20.997Z,12.48
2022-09-21T21:44:50.543Z,12.73
2022-09-21T21:47:38.823Z,12.79
2022-09-21T21:50:05.611Z,13.03
2022-09-21T21:52:32.334Z,13.04
2022-09-21T21:54:59.025Z,13.07
2022-09-21T21:57:25.819Z,12.92
2022-09-21T21:59:52.693Z,13.06
2022-09-21T22:02:19.390Z,12.98
2022-09-21T22:04:46.287Z,12.91
2022-09-21T22:07:13.010Z,13.04
2022-09-21T22:09:39.936Z,12.89
2022-09-21T22:12:06.911Z,12.80
2022-09-21T22:14:33.756Z,13.07
2022-09-21T22:17:00.744Z,13.01
2022-09-21T22:19:27.587Z,12.90
2022-09-21T22:21:54.935Z,12.93
2022-09-21T22:24:22.565Z,12.99
2022-09-21T22:26:49.426Z,13.00
2022-09-21T22:29:17.390Z,13.13
2022-09-21T22:31:47.022Z,12.95
2022-09-21T22:34:14.979Z,12.95
2022-09-21T22:36:43.776Z,12.69
2022-09-21T22:39:11.731Z,12.78
2022-09-21T22:41:41.100Z,12.88
2022-09-21T22:44:09.427Z,12.90
2022-09-21T22:46:37.399Z,13.10
2022-09-21T22:49:05.103Z,12.95
2022-09-21T22:51:32.316Z,12.65
2022-09-21T22:53:59.344Z,12.68
2022-09-21T22:56:30.476Z,12.83
2022-09-21T22:58:59.103Z,12.93
2022-09-21T23:01:35.166Z,12.90
2022-09-21T23:04:06.159Z,12.88
2022-09-21T23:06:35.182Z,12.91
2022-09-21T23:09:07.181Z,12.86
2022-09-21T23:11:37.571Z,12.86
2022-09-21T23:14:04.938Z,12.85
2022-09-21T23:16:32.348Z,12.86
2022-09-21T23:18:59.862Z,13.00
2022-09-21T23:21:29.259Z,13.16
2022-09-21T23:24:00.801Z,13.03
2022-09-21T23:26:30.279Z,12.83
2022-09-21T23:28:59.389Z,12.85
2022-09-21T23:31:27.211Z,12.70
2022-09-21T23:33:55.742Z,12.52
2022-09-21T23:36:28.945Z,12.59
2022-09-21T23:38:56.475Z,12.50
2022-09-21T23:41:29.528Z,12.42
2022-09-21T23:43:57.488Z,12.32
2022-09-21T23:46:27.307Z,12.32
2022-09-21T23:48:54.705Z,12.26
2022-09-21T23:51:21.890Z,12.29
2022-09-21T23:53:49.211Z,12.31
2022-09-21T23:56:18.617Z,12.22
2022-09-21T23:58:45.827Z,12.13
